createdAt,value
2022-11-09T00:01:01.500Z,2.28
2022-11-09T00:03:27.927Z,2.30
2022-11-09T00:05:58.900Z,2.47
2022-11-09T00:08:25.586Z,2.40
2022-11-09T00:10:52.209Z,1.92
2022-11-09T00:13:19.084Z,2.40
2022-11-09T00:15:45.654Z,2.40
2022-11-09T00:18:12.131Z,2.28
2022-11-09T00:20:44.515Z,2.45
2022-11-09T00:23:13.562Z,2.33
2022-11-09T00:25:39.975Z,2.40
2022-11-09T00:28:06.626Z,2.20
2022-11-09T00:30:33.016Z,2.33
2022-11-09T00:32:59.430Z,2.20
2022-11-09T00:35:26.436Z,2.13
2022-11-09T00:37:52.880Z,1.90
2022-11-09T00:40:19.337Z,2.15
2022-11-09T00:42:45.781Z,2.30
2022-11-09T00:45:12.210Z,2.33
2022-11-09T00:47:38.637Z,2.50
2022-11-09T00:50:05.746Z,2.40
2022-11-09T00:52:32.153Z,2.10
2022-11-09T00:54:58.553Z,2.33
2022-11-09T00:57:24.971Z,2.45
2022-11-09T00:59:51.938Z,2.22
2022-11-09T01:02:18.315Z,2.40
2022-11-09T01:04:44.719Z,2.25
2022-11-09T01:07:11.327Z,2.50
2022-11-09T01:09:38.035Z,2.30
2022-11-09T01:12:04.532Z,2.35
2022-11-09T01:14:31.008Z,2.08
2022-11-09T01:16:57.499Z,2.33
2022-11-09T01:19:24.530Z,2.00
2022-11-09T01:21:50.934Z,2.30
2022-11-09T01:24:17.347Z,2.67
2022-11-09T01:26:43.832Z,2.20
2022-11-09T01:29:10.269Z,2.55
2022-11-09T01:31:36.668Z,2.38
2022-11-09T01:34:03.171Z,2.20
2022-11-09T01:36:29.979Z,2.22
2022-11-09T01:38:56.427Z,2.47
2022-11-09T01:41:28.533Z,2.33
2022-11-09T01:44:13.155Z,2.22
2022-11-09T01:46:51.951Z,2.35
2022-11-09T01:49:41.017Z,2.30
2022-11-09T01:52:13.984Z,2.13
2022-11-09T01:54:53.443Z,2.67
2022-11-09T01:57:25.971Z,2.53
2022-11-09T01:59:56.490Z,2.65
2022-11-09T02:02:23.277Z,2.10
2022-11-09T02:05:00.680Z,2.67
2022-11-09T02:07:28.280Z,2.42
2022-11-09T02:10:22.925Z,2.90
2022-11-09T02:12:49.965Z,2.25
2022-11-09T02:15:16.619Z,2.45
2022-11-09T02:17:43.645Z,2.65
2022-11-09T02:20:14.292Z,2.53
2022-11-09T02:22:41.724Z,2.38
2022-11-09T02:25:10.081Z,2.60
2022-11-09T02:27:37.560Z,2.42
2022-11-09T02:30:06.313Z,2.65
2022-11-09T02:32:32.760Z,2.40
2022-11-09T02:34:59.276Z,2.55
2022-11-09T02:37:26.769Z,2.65
2022-11-09T02:39:53.622Z,2.40
2022-11-09T02:42:21.601Z,2.30
2022-11-09T02:44:51.833Z,2.50
2022-11-09T02:47:18.383Z,2.47
2022-11-09T02:49:44.789Z,2.17
2022-11-09T02:52:11.217Z,2.42
2022-11-09T02:54:37.709Z,2.50
2022-11-09T02:57:04.257Z,2.53
2022-11-09T02:59:30.675Z,2.30
2022-11-09T03:01:57.122Z,2.80
2022-11-09T03:04:23.549Z,2.70
2022-11-09T03:06:49.985Z,2.60
2022-11-09T03:09:16.773Z,2.92
2022-11-09T03:11:43.338Z,2.78
2022-11-09T03:14:09.887Z,2.95
2022-11-09T03:16:39.875Z,2.50
2022-11-09T03:19:07.244Z,2.67
2022-11-09T03:21:33.996Z,2.90
2022-11-09T03:24:00.450Z,2.97
2022-11-09T03:26:26.992Z,3.28
2022-11-09T03:28:53.480Z,3.47
2022-11-09T03:31:19.888Z,3.25
2022-11-09T03:33:46.298Z,2.70
2022-11-09T03:36:13.003Z,2.95
2022-11-09T03:38:39.409Z,2.75
2022-11-09T03:41:05.806Z,3.05
2022-11-09T03:43:32.541Z,2.70
2022-11-09T03:45:59.072Z,2.70
2022-11-09T03:48:25.522Z,2.70
2022-11-09T03:50:51.946Z,2.90
2022-11-09T03:53:19.523Z,2.00
2022-11-09T03:55:46.180Z,2.50
2022-11-09T03:58:15.993Z,2.13
2022-11-09T04:00:42.435Z,2.20
2022-11-09T04:03:08.903Z,2.47
2022-11-09T04:05:35.958Z,2.40
2022-11-09T04:08:02.416Z,2.22
2022-11-09T04:10:28.853Z,2.30
2022-11-09T04:12:55.476Z,2.00
2022-11-09T04:15:21.926Z,2.20
2022-11-09T04:18:00.105Z,2.45
2022-11-09T04:20:28.897Z,1.85
2022-11-09T04:22:57.789Z,2.00
2022-11-09T04:25:25.963Z,1.83
2022-11-09T04:27:57.284Z,2.13
2022-11-09T04:30:24.807Z,2.17
2022-11-09T04:32:51.285Z,2.17
2022-11-09T04:35:17.732Z,1.52
2022-11-09T04:37:44.218Z,1.75
2022-11-09T04:40:11.285Z,1.90
2022-11-09T04:42:37.713Z,1.90
2022-11-09T04:45:04.501Z,1.75
2022-11-09T04:47:30.956Z,1.50
2022-11-09T04:49:57.378Z,1.48
2022-11-09T04:52:23.784Z,1.50
2022-11-09T04:54:50.180Z,1.40
2022-11-09T04:57:16.577Z,1.85
2022-11-09T04:59:42.964Z,1.50
2022-11-09T05:02:09.360Z,1.10
2022-11-09T05:04:35.727Z,1.70
2022-11-09T05:07:02.255Z,1.40
2022-11-09T05:09:28.742Z,1.63
2022-11-09T05:11:55.155Z,1.63
2022-11-09T05:14:21.552Z,1.20
2022-11-09T05:16:47.982Z,1.33
2022-11-09T05:19:14.551Z,1.20
2022-11-09T05:21:40.938Z,1.30
2022-11-09T05:24:07.665Z,1.70
2022-11-09T05:26:39.094Z,1.48
2022-11-09T05:29:08.446Z,1.60
2022-11-09T05:31:34.930Z,1.70
2022-11-09T05:34:01.646Z,1.70
2022-11-09T05:36:30.467Z,1.73
2022-11-09T05:39:00.204Z,1.95
2022-11-09T05:41:26.796Z,1.92
2022-11-09T05:43:53.533Z,2.67
2022-11-09T05:46:20.346Z,2.15
2022-11-09T05:48:47.141Z,2.08
2022-11-09T05:51:14.790Z,2.38
2022-11-09T05:53:46.057Z,2.47
2022-11-09T05:56:14.312Z,2.88
2022-11-09T05:58:41.942Z,2.50
2022-11-09T06:01:10.740Z,2.90
2022-11-09T06:03:37.216Z,2.22
2022-11-09T06:06:08.607Z,2.90
2022-11-09T06:08:35.694Z,3.42
2022-11-09T06:11:05.227Z,3.20
2022-11-09T06:13:32.311Z,3.03
2022-11-09T06:16:01.642Z,2.92
2022-11-09T06:18:29.750Z,2.72
2022-11-09T06:20:58.468Z,3.00
2022-11-09T06:23:25.668Z,2.92
2022-11-09T06:25:59.855Z,3.28
2022-11-09T06:28:26.771Z,2.90
2022-11-09T06:30:53.600Z,3.15
2022-11-09T06:33:20.238Z,3.33
2022-11-09T06:35:49.781Z,3.17
2022-11-09T06:38:18.557Z,3.10
2022-11-09T06:40:44.961Z,2.83
2022-11-09T06:43:11.416Z,3.17
2022-11-09T06:45:37.824Z,3.40
2022-11-09T06:48:04.535Z,3.65
2022-11-09T06:50:33.258Z,3.28
2022-11-09T06:53:05.936Z,2.78
2022-11-09T06:55:34.347Z,3.47
2022-11-09T06:58:04.838Z,3.55
2022-11-09T07:00:31.322Z,3.90
2022-11-09T07:02:57.752Z,2.72
2022-11-09T07:05:24.214Z,3.03
2022-11-09T07:07:50.788Z,2.60
2022-11-09T07:10:17.573Z,2.67
2022-11-09T07:12:44.115Z,2.83
2022-11-09T07:15:11.611Z,2.40
2022-11-09T07:17:39.753Z,2.03
2022-11-09T07:20:07.691Z,2.30
2022-11-09T07:22:40.143Z,3.25
2022-11-09T07:25:08.546Z,3.03
2022-11-09T07:27:35.668Z,3.25
2022-11-09T07:30:02.711Z,3.05
2022-11-09T07:33:01.868Z,2.88
2022-11-09T07:35:15.577Z,2.95
2022-11-09T07:37:41.959Z,2.53
2022-11-09T07:40:09.114Z,2.42
2022-11-09T07:42:35.530Z,2.30
2022-11-09T07:45:01.947Z,2.22
2022-11-09T07:47:28.334Z,1.85
2022-11-09T07:49:54.799Z,2.22
2022-11-09T07:52:21.263Z,2.17
2022-11-09T07:54:52.008Z,2.53
2022-11-09T07:57:18.910Z,2.80
2022-11-09T07:59:45.360Z,2.40
2022-11-09T08:02:12.070Z,2.65
2022-11-09T08:04:38.566Z,2.70
2022-11-09T08:07:05.017Z,2.47
2022-11-09T08:09:31.588Z,1.92
2022-11-09T08:11:58.046Z,2.00
2022-11-09T08:14:24.649Z,2.42
2022-11-09T08:16:51.123Z,2.20
2022-11-09T08:19:17.567Z,2.10
2022-11-09T08:21:44.478Z,2.85
2022-11-09T08:24:10.900Z,2.20
2022-11-09T08:26:37.366Z,2.35
2022-11-09T08:29:04.166Z,2.42
2022-11-09T08:31:31.083Z,2.30
2022-11-09T08:33:57.504Z,2.33
2022-11-09T08:36:26.041Z,2.17
2022-11-09T08:38:52.884Z,2.72
2022-11-09T08:41:19.289Z,1.95
2022-11-09T08:43:45.843Z,2.20
2022-11-09T08:46:12.292Z,2.40
2022-11-09T08:48:39.164Z,2.42
2022-11-09T08:51:05.756Z,3.00
2022-11-09T08:53:32.188Z,3.00
2022-11-09T08:55:58.869Z,2.33
2022-11-09T08:58:25.520Z,2.80
2022-11-09T09:00:52.068Z,2.70
2022-11-09T09:03:18.876Z,2.45
2022-11-09T09:05:45.330Z,2.58
2022-11-09T09:08:12.937Z,2.40
2022-11-09T09:10:40.413Z,2.33
2022-11-09T09:13:07.480Z,2.25
2022-11-09T09:15:34.040Z,2.67
2022-11-09T09:18:01.365Z,2.78
2022-11-09T09:20:28.353Z,2.83
2022-11-09T09:22:58.128Z,2.35
2022-11-09T09:25:24.811Z,2.60
2022-11-09T09:27:51.370Z,2.90
2022-11-09T09:30:17.917Z,2.78
2022-11-09T09:32:44.329Z,2.78
2022-11-09T09:35:11.159Z,2.90
2022-11-09T09:37:37.642Z,2.47
2022-11-09T09:40:04.656Z,3.70
2022-11-09T09:42:36.922Z,2.35
2022-11-09T09:45:15.078Z,3.03
2022-11-09T09:47:46.727Z,2.50
2022-11-09T09:50:20.668Z,3.35
2022-11-09T09:53:22.048Z,2.42
2022-11-09T09:55:47.755Z,2.38
2022-11-09T09:58:23.707Z,2.00
2022-11-09T10:00:55.157Z,2.20
2022-11-09T10:03:21.658Z,1.63
2022-11-09T10:06:09.817Z,1.90
2022-11-09T10:09:07.284Z,2.30
2022-11-09T10:12:00.982Z,1.48
2022-11-09T10:17:25.276Z,1.75
2022-11-09T10:20:03.836Z,1.90
2022-11-09T10:22:41.345Z,2.85
2022-11-09T10:25:37.962Z,2.03
2022-11-09T10:28:17.430Z,1.40
2022-11-09T10:30:44.774Z,1.40
2022-11-09T10:33:11.100Z,1.20
2022-11-09T10:35:45.063Z,1.20
2022-11-09T10:38:26.016Z,1.17
2022-11-09T10:40:58.278Z,1.33
2022-11-09T10:43:24.717Z,1.23
2022-11-09T10:46:07.008Z,1.13
2022-11-09T10:48:36.129Z,1.55
2022-11-09T10:51:03.202Z,1.45
2022-11-09T10:53:31.793Z,1.25
2022-11-09T10:56:04.774Z,1.70
2022-11-09T10:58:40.795Z,3.28
2022-11-09T11:01:15.912Z,2.35
2022-11-09T11:03:44.052Z,2.25
2022-11-09T11:06:22.577Z,1.40
2022-11-09T11:09:12.012Z,1.42
2022-11-09T11:11:39.653Z,3.17
2022-11-09T11:14:11.635Z,1.75
2022-11-09T11:16:40.045Z,2.30
2022-11-09T11:19:31.236Z,1.70
2022-11-09T11:22:22.709Z,1.60
2022-11-09T11:24:59.514Z,1.60
2022-11-09T11:27:32.341Z,1.70
2022-11-09T11:30:22.962Z,1.80
2022-11-09T11:32:50.964Z,1.90
2022-11-09T11:35:32.936Z,1.70
2022-11-09T11:38:23.872Z,1.80
2022-11-09T11:41:19.563Z,1.25
2022-11-09T11:43:55.216Z,0.90
2022-11-09T11:46:48.417Z,0.73
2022-11-09T11:49:20.612Z,1.65
2022-11-09T11:51:59.231Z,0.70
2022-11-09T11:54:56.890Z,3.20
2022-11-09T11:57:39.495Z,4.50
2022-11-09T12:00:15.381Z,0.95
2022-11-09T12:03:01.864Z,0.90
2022-11-09T12:05:53.957Z,0.93
2022-11-09T12:08:35.425Z,0.70
2022-11-09T12:11:30.057Z,1.45
2022-11-09T12:14:05.945Z,0.75
2022-11-09T12:16:49.275Z,0.70
2022-11-09T12:19:25.529Z,0.90
2022-11-09T12:22:01.094Z,0.70
2022-11-09T12:25:03.923Z,0.73
2022-11-09T12:27:49.183Z,0.60
2022-11-09T12:30:21.465Z,0.70
2022-11-09T12:32:56.726Z,0.70
2022-11-09T12:35:40.883Z,0.90
2022-11-09T12:38:36.599Z,1.00
2022-11-09T12:41:14.561Z,0.80
2022-11-09T12:43:56.506Z,1.10
2022-11-09T12:46:32.268Z,0.80
2022-11-09T12:49:02.792Z,0.80
2022-11-09T12:51:29.980Z,0.90
2022-11-09T12:53:58.962Z,1.17
2022-11-09T12:56:36.722Z,1.20
2022-11-09T12:59:27.827Z,1.00
2022-11-09T13:01:57.474Z,0.90
2022-11-09T13:04:25.692Z,0.75
2022-11-09T13:07:04.430Z,0.80
2022-11-09T13:09:44.087Z,0.70
2022-11-09T13:12:32.770Z,0.80
2022-11-09T13:15:23.400Z,0.90
2022-11-09T13:18:46.632Z,0.95
2022-11-09T13:21:22.147Z,1.17
2022-11-09T13:24:09.083Z,0.80
2022-11-09T13:26:36.632Z,0.70
2022-11-09T13:29:11.106Z,0.73
2022-11-09T13:32:23.593Z,1.00
2022-11-09T13:34:55.715Z,0.90
2022-11-09T13:37:35.278Z,1.00
2022-11-09T13:40:22.574Z,0.80
2022-11-09T13:43:50.484Z,1.17
2022-11-09T13:46:26.665Z,1.25
2022-11-09T13:48:54.229Z,1.48
2022-11-09T13:51:22.067Z,0.90
2022-11-09T13:54:25.032Z,1.00
2022-11-09T13:56:53.145Z,0.90
2022-11-09T13:59:27.052Z,1.10
2022-11-09T14:02:02.084Z,1.13
2022-11-09T14:04:29.727Z,1.00
2022-11-09T14:07:01.602Z,1.15
2022-11-09T14:09:33.271Z,1.20
2022-11-09T14:12:26.294Z,0.70
2022-11-09T14:15:06.337Z,1.10
2022-11-09T14:18:12.024Z,1.10
2022-11-09T14:20:43.173Z,1.50
2022-11-09T14:23:35.964Z,0.80
2022-11-09T14:26:10.304Z,1.00
2022-11-09T14:28:37.290Z,0.80
2022-11-09T14:31:03.767Z,0.90
2022-11-09T14:33:34.443Z,1.17
2022-11-09T14:36:02.492Z,0.80
2022-11-09T14:38:32.762Z,0.80
2022-11-09T14:40:59.719Z,1.05
2022-11-09T14:43:43.808Z,1.45
2022-11-09T14:46:20.229Z,0.82
2022-11-09T14:49:03.348Z,0.88
2022-11-09T14:51:38.773Z,0.90
2022-11-09T14:54:14.082Z,1.00
2022-11-09T14:56:42.529Z,1.00
2022-11-09T14:59:16.170Z,0.80
2022-11-09T15:04:23.799Z,1.15
2022-11-09T15:06:53.251Z,1.30
2022-11-09T15:09:23.071Z,1.02
2022-11-09T15:11:51.058Z,0.80
2022-11-09T15:14:17.421Z,1.00
2022-11-09T15:16:46.694Z,1.20
2022-11-09T15:19:32.494Z,1.00
2022-11-09T15:21:59.600Z,1.00
2022-11-09T15:24:29.345Z,0.93
2022-11-09T15:26:56.813Z,1.08
2022-11-09T15:29:27.763Z,1.00
2022-11-09T15:32:01.425Z,1.10
2022-11-09T15:37:00.377Z,1.55
2022-11-09T15:39:26.824Z,1.10
2022-11-09T15:41:53.397Z,1.60
2022-11-09T15:44:20.876Z,1.52
2022-11-09T15:46:50.987Z,1.30
2022-11-09T15:49:24.408Z,1.30
2022-11-09T15:51:53.453Z,1.10
2022-11-09T15:54:22.031Z,7.80
2022-11-09T15:56:48.998Z,1.38
2022-11-09T15:59:23.033Z,1.95
2022-11-09T16:01:49.506Z,0.98
2022-11-09T16:04:16.070Z,1.50
2022-11-09T16:06:46.353Z,1.40
2022-11-09T16:09:13.317Z,1.30
2022-11-09T16:11:39.726Z,1.13
2022-11-09T16:14:06.630Z,1.42
2022-11-09T16:16:33.027Z,1.40
2022-11-09T16:18:59.844Z,1.58
2022-11-09T16:21:26.394Z,1.40
2022-11-09T16:23:58.075Z,1.70
2022-11-09T16:26:25.063Z,1.55
2022-11-09T16:28:51.622Z,1.63
2022-11-09T16:31:25.341Z,1.63
2022-11-09T16:34:01.786Z,1.58
2022-11-09T16:36:29.090Z,1.48
2022-11-09T16:38:56.683Z,1.35
2022-11-09T16:41:24.992Z,1.70
2022-11-09T16:43:54.840Z,2.00
2022-11-09T16:46:25.326Z,1.52
2022-11-09T16:48:53.816Z,1.63
2022-11-09T16:51:20.809Z,1.88
2022-11-09T16:53:47.583Z,1.70
2022-11-09T16:56:14.104Z,1.80
2022-11-09T16:58:40.684Z,1.63
2022-11-09T17:01:12.471Z,1.27
2022-11-09T17:03:39.985Z,2.13
2022-11-09T17:06:11.086Z,1.40
2022-11-09T17:08:39.300Z,1.65
2022-11-09T17:11:14.953Z,2.20
2022-11-09T17:13:45.268Z,1.63
2022-11-09T17:16:13.386Z,2.08
2022-11-09T17:18:40.593Z,2.17
2022-11-09T17:21:11.745Z,1.90
2022-11-09T17:23:38.496Z,1.80
2022-11-09T17:26:06.823Z,1.42
2022-11-09T17:28:37.648Z,1.50
2022-11-09T17:31:14.980Z,1.50
2022-11-09T17:33:41.685Z,1.67
2022-11-09T17:36:11.328Z,2.97
2022-11-09T17:38:38.883Z,1.83
2022-11-09T17:41:07.910Z,2.40
2022-11-09T17:43:36.554Z,1.40
2022-11-09T17:46:08.273Z,4.35
2022-11-09T17:48:36.310Z,1.58
2022-11-09T17:51:04.012Z,2.63
2022-11-09T17:53:30.829Z,3.15
2022-11-09T17:55:57.901Z,2.83
2022-11-09T17:58:25.491Z,2.22
2022-11-09T18:00:52.427Z,3.67
2022-11-09T18:03:19.009Z,3.10
2022-11-09T18:05:45.945Z,3.05
2022-11-09T18:08:14.420Z,2.30
2022-11-09T18:10:45.437Z,4.00
2022-11-09T18:13:11.876Z,2.75
2022-11-09T18:15:39.482Z,2.33
2022-11-09T18:18:06.669Z,1.85
2022-11-09T18:20:33.605Z,2.10
2022-11-09T18:23:00.223Z,2.50
2022-11-09T18:25:26.653Z,4.65
2022-11-09T18:27:53.061Z,4.65
2022-11-09T18:30:19.846Z,3.10
2022-11-09T18:32:46.306Z,2.78
2022-11-09T18:35:12.734Z,2.58
2022-11-09T18:37:40.179Z,3.50
2022-11-09T18:40:07.777Z,2.78
2022-11-09T18:42:34.237Z,4.25
2022-11-09T18:45:00.730Z,6.35
2022-11-09T18:47:27.313Z,3.17
2022-11-09T18:49:53.802Z,3.00
2022-11-09T18:52:20.534Z,2.42
2022-11-09T18:54:47.075Z,2.67
2022-11-09T18:57:17.311Z,2.10
2022-11-09T18:59:46.228Z,2.70
2022-11-09T19:02:13.971Z,2.42
2022-11-09T19:04:40.573Z,1.95
2022-11-09T19:07:07.083Z,2.30
2022-11-09T19:09:38.528Z,4.93
2022-11-09T19:12:08.258Z,3.08
2022-11-09T19:14:45.455Z,2.70
2022-11-09T19:17:14.101Z,2.40
2022-11-09T19:19:42.293Z,1.52
2022-11-09T19:22:17.746Z,2.15
2022-11-09T19:24:45.470Z,1.70
2022-11-09T19:27:11.956Z,3.03
2022-11-09T19:29:38.390Z,2.38
2022-11-09T19:32:04.867Z,2.40
2022-11-09T19:34:31.521Z,2.95
2022-11-09T19:36:58.971Z,2.40
2022-11-09T19:39:29.609Z,2.45
2022-11-09T19:44:25.371Z,1.52
2022-11-09T19:46:52.122Z,1.98
2022-11-09T19:49:18.524Z,1.42
2022-11-09T19:51:44.938Z,2.08
2022-11-09T19:54:12.846Z,1.50
2022-11-09T19:56:39.432Z,1.83
2022-11-09T19:59:06.983Z,1.65
2022-11-09T20:01:33.472Z,1.65
2022-11-09T20:04:03.188Z,1.45
2022-11-09T20:06:31.755Z,1.70
2022-11-09T20:08:59.890Z,2.45
2022-11-09T20:11:46.771Z,2.03
2022-11-09T20:14:14.161Z,1.42
2022-11-09T20:16:42.279Z,1.50
2022-11-09T20:19:11.832Z,1.90
2022-11-09T20:21:40.204Z,1.50
2022-11-09T20:24:07.999Z,1.40
2022-11-09T20:26:34.647Z,1.50
2022-11-09T20:29:01.051Z,1.67
2022-11-09T20:31:27.528Z,1.65
2022-11-09T20:33:56.382Z,1.80
2022-11-09T20:36:22.928Z,1.52
2022-11-09T20:38:49.435Z,1.83
2022-11-09T20:41:15.885Z,1.60
2022-11-09T20:43:42.360Z,1.20
2022-11-09T20:46:16.046Z,1.50
2022-11-09T20:51:26.033Z,1.48
2022-11-09T20:53:52.521Z,2.25
2022-11-09T20:56:20.190Z,2.15
2022-11-09T20:58:47.146Z,2.33
2022-11-09T21:01:26.863Z,2.53
2022-11-09T21:03:53.914Z,2.03
2022-11-09T21:06:21.511Z,1.65
2022-11-09T21:08:53.624Z,1.30
2022-11-09T21:11:20.482Z,1.70
2022-11-09T21:13:50.954Z,1.90
2022-11-09T21:16:19.600Z,2.35
2022-11-09T21:18:46.335Z,1.50
2022-11-09T21:21:15.710Z,2.08
2022-11-09T21:24:01.189Z,1.50
2022-11-09T21:26:46.624Z,1.58
2022-11-09T21:29:33.973Z,1.50
2022-11-09T21:32:00.892Z,1.90
2022-11-09T21:34:32.751Z,1.40
2022-11-09T21:37:02.075Z,1.58
2022-11-09T21:39:28.505Z,1.80
2022-11-09T21:41:54.962Z,1.83
2022-11-09T21:44:21.453Z,1.48
2022-11-09T21:46:47.844Z,1.52
2022-11-09T21:49:14.347Z,1.55
2022-11-09T21:51:41.166Z,1.48
2022-11-09T21:54:08.748Z,1.52
2022-11-09T21:56:35.249Z,1.55
2022-11-09T21:59:01.800Z,1.02
2022-11-09T22:01:28.272Z,1.27
2022-11-09T22:03:55.571Z,1.48
2022-11-09T22:06:22.160Z,1.50
2022-11-09T22:08:49.316Z,1.25
2022-11-09T22:11:18.748Z,1.50
2022-11-09T22:14:04.022Z,1.70
2022-11-09T22:16:32.892Z,1.70
2022-11-09T22:19:20.527Z,1.60
2022-11-09T22:21:47.042Z,1.52
2022-11-09T22:24:14.712Z,1.20
2022-11-09T22:26:41.119Z,1.23
2022-11-09T22:29:07.559Z,1.80
2022-11-09T22:31:33.977Z,1.40
2022-11-09T22:34:00.377Z,1.50
2022-11-09T22:36:26.804Z,1.65
2022-11-09T22:38:53.280Z,1.67
2022-11-09T22:41:19.931Z,1.40
2022-11-09T22:43:46.342Z,1.83
2022-11-09T22:46:15.383Z,1.58
2022-11-09T22:48:43.455Z,1.30
2022-11-09T22:51:12.714Z,1.20
2022-11-09T22:53:39.733Z,1.35
2022-11-09T22:56:06.828Z,1.40
2022-11-09T22:58:33.274Z,1.90
2022-11-09T23:01:06.268Z,1.42
2022-11-09T23:03:33.837Z,1.65
2022-11-09T23:06:05.793Z,1.30
2022-11-09T23:08:37.718Z,1.50
2022-11-09T23:11:06.566Z,1.67
2022-11-09T23:13:33.864Z,1.30
2022-11-09T23:16:04.448Z,1.30
2022-11-09T23:18:50.177Z,1.40
2022-11-09T23:21:16.954Z,1.67
2022-11-09T23:23:43.399Z,1.10
2022-11-09T23:26:10.798Z,2.00
2022-11-09T23:28:37.618Z,1.73
2022-11-09T23:31:10.253Z,1.55
2022-11-09T23:33:37.201Z,1.83
2022-11-09T23:36:05.288Z,1.55
2022-11-09T23:38:34.786Z,2.17
2022-11-09T23:41:06.236Z,2.33
2022-11-09T23:43:32.862Z,1.70
2022-11-09T23:46:04.587Z,1.33
2022-11-09T23:48:31.371Z,1.80
2022-11-09T23:51:00.051Z,1.95
2022-11-09T23:53:27.992Z,1.60
2022-11-09T23:55:55.230Z,1.40
2022-11-09T23:58:21.762Z,1.50
